Time;durP1;ratioP1;P1;durP2;ratioP2;P2;SDS_P1;SDS_P2;PMS_P1;PMS_P2;Temp;Humidity;BMP_temperature;BMP_pressure;BME280_temperature;BME280_humidity;BME280_pressure;Samples;Min_cycle;Max_cycle;Signal;HPM_P1;HPM_P2
2023/03/30 00:03:55;;;;;;;6.65;2.05;;;;;;;14.23;54.97;99603.31;10403184;28;20151;-60
2023/03/30 00:08:58;;;;;;;3.90;2.08;;;;;;;14.19;54.86;99612.66;10403489;28;20708;-59
2023/03/30 00:14:00;;;;;;;5.88;2.65;;;;;;;14.18;55.28;99602.13;10402973;28;20052;-62
2023/03/30 00:19:02;;;;;;;4.40;2.70;;;;;;;14.19;55.22;99607.31;10407876;28;20052;-58
2023/03/30 00:24:03;;;;;;;3.13;2.22;;;;;;;14.22;55.29;99598.13;10408655;28;20194;-59
2023/03/30 00:29:05;;;;;;;5.82;2.67;;;;;;;14.20;55.03;99597.44;10410243;28;20057;-60
2023/03/30 00:34:07;;;;;;;3.85;2.17;;;;;;;14.20;54.88;99590.25;10412298;28;20159;-59
2023/03/30 00:39:09;;;;;;;6.88;2.88;;;;;;;14.18;55.15;99583.38;10407605;28;20120;-60
2023/03/30 00:44:48;;;;;;;3.97;2.42;;;;;;;14.20;55.54;99586.72;10409417;28;20528;-60
2023/03/30 00:49:50;;;;;;;5.18;2.35;;;;;;;14.13;55.39;99576.69;10410201;28;20520;-60
2023/03/30 00:54:55;;;;;;;4.75;2.55;;;;;;;14.05;56.09;99565.09;10407250;28;20041;-59
2023/03/30 00:59:57;;;;;;;5.80;2.42;;;;;;;13.99;56.26;99568.44;10410459;28;20063;-60
2023/03/30 01:05:00;;;;;;;6.15;2.63;;;;;;;13.90;56.57;99554.19;10406919;28;20052;-60
2023/03/30 01:10:03;;;;;;;3.90;2.45;;;;;;;13.88;56.75;99553.53;10408203;28;20687;-60
2023/03/30 01:15:06;;;;;;;4.82;2.70;;;;;;;13.86;56.88;99558.22;10410537;28;20063;-60
2023/03/30 01:20:29;;;;;;;3.83;2.50;;;;;;;13.85;56.99;99559.19;10409614;28;20044;-61
2023/03/30 01:26:02;;;;;;;2.50;1.80;;;;;;;13.83;56.96;99547.84;10405760;28;20905;-60
2023/03/30 01:31:29;;;;;;;3.38;2.03;;;;;;;13.82;57.30;99567.56;10409002;28;20361;-60
2023/03/30 01:37:10;;;;;;;3.95;2.45;;;;;;;13.85;57.17;99564.56;10403992;28;20053;-60
2023/03/30 01:42:20;;;;;;;6.13;2.50;;;;;;;13.85;57.04;99553.84;10406320;28;20416;-60
2023/03/30 01:47:44;;;;;;;4.15;2.35;;;;;;;13.86;57.14;99542.16;10393715;28;20068;-60
2023/03/30 01:52:58;;;;;;;4.27;2.10;;;;;;;13.92;57.40;99546.84;10404790;28;20052;-60
2023/03/30 01:58:13;;;;;;;7.03;2.08;;;;;;;13.91;57.27;99534.47;10405424;28;20801;-60
2023/03/30 02:03:26;;;;;;;6.37;2.10;;;;;;;13.97;57.25;99561.41;10409865;28;20056;-60
2023/03/30 02:08:32;;;;;;;6.88;2.40;;;;;;;13.95;57.43;99563.41;10401940;28;20697;-60
2023/03/30 02:13:36;;;;;;;3.38;2.00;;;;;;;13.97;57.75;99560.56;10381647;28;20559;-60
2023/03/30 02:18:38;;;;;;;4.53;2.30;;;;;;;13.95;57.66;99551.88;10412702;28;20319;-60
2023/03/30 02:23:44;;;;;;;9.95;3.45;;;;;;;13.99;57.55;99542.53;10375766;28;20128;-60
2023/03/30 02:28:45;;;;;;;8.57;3.60;;;;;;;13.94;57.87;99561.72;10404245;28;20057;-60
2023/03/30 02:34:05;;;;;;;7.18;2.28;;;;;;;13.93;58.16;99570.78;10402565;28;20057;-60
2023/03/30 02:39:28;;;;;;;6.57;2.72;;;;;;;13.96;57.95;99562.41;10402785;28;20049;-60
2023/03/30 02:44:37;;;;;;;6.38;2.20;;;;;;;13.98;58.09;99551.56;10400523;28;20060;-60
2023/03/30 02:50:01;;;;;;;5.63;2.25;;;;;;;14.05;58.10;99557.09;10403824;28;20052;-64
2023/03/30 02:55:12;;;;;;;9.30;2.53;;;;;;;14.04;58.02;99529.50;10406607;28;20052;-60
2023/03/30 03:00:21;;;;;;;4.13;2.17;;;;;;;14.07;58.39;99542.53;10406631;28;20589;-60
2023/03/30 03:05:25;;;;;;;6.40;3.38;;;;;;;14.08;58.35;99562.09;10405575;28;20042;-58
2023/03/30 03:10:26;;;;;;;6.45;2.58;;;;;;;14.08;58.32;99568.31;10402161;28;20110;-59
2023/03/30 03:15:29;;;;;;;7.25;2.80;;;;;;;14.03;58.10;99588.53;10396443;28;20791;-60
2023/03/30 03:20:30;;;;;;;4.38;2.58;;;;;;;14.01;58.44;99585.19;10395280;28;20823;-60
2023/03/30 03:25:32;;;;;;;5.53;2.58;;;;;;;14.02;58.49;99585.03;10389823;28;20699;-61
2023/03/30 03:30:34;;;;;;;10.57;2.35;;;;;;;13.99;58.70;99563.94;10403641;28;20064;-60
2023/03/30 03:35:38;;;;;;;5.82;2.42;;;;;;;14.04;58.80;99584.88;10392789;28;20041;-59
2023/03/30 03:40:40;;;;;;;;;;;;;;;14.06;58.95;99581.00;10393167;28;20060;-64
2023/03/30 03:45:41;;;;;;;6.38;2.40;;;;;;;14.06;58.94;99556.91;10371529;28;19927;-60
2023/03/30 03:50:44;;;;;;;11.27;2.55;;;;;;;14.07;58.78;99537.19;10366720;28;20045;-58
2023/03/30 03:55:45;;;;;;;5.20;2.50;;;;;;;14.09;58.85;99476.31;10396159;28;20049;-60
2023/03/30 04:00:47;;;;;;;6.30;2.75;;;;;;;14.03;59.13;99428.81;10400580;28;20580;-60
2023/03/30 04:05:48;;;;;;;4.00;1.77;;;;;;;14.04;59.08;99440.38;10397866;28;20044;-60
2023/03/30 04:10:50;;;;;;;6.47;2.25;;;;;;;14.02;59.42;99445.88;10407282;28;20056;-59
2023/03/30 04:15:52;;;;;;;8.00;2.30;;;;;;;14.07;59.79;99416.78;10395393;28;20049;-60
2023/03/30 04:20:55;;;;;;;5.45;2.03;;;;;;;14.09;60.25;99436.16;10392946;28;20047;-60
2023/03/30 04:25:57;;;;;;;4.70;1.98;;;;;;;14.07;61.09;99422.13;10391511;28;20262;-60
2023/03/30 04:31:00;;;;;;;10.52;3.22;;;;;;;14.09;61.94;99413.94;10395058;28;20067;-60
2023/03/30 04:36:04;;;;;;;7.50;2.45;;;;;;;14.06;62.21;99396.38;10392072;28;20166;-60
2023/03/30 04:41:08;;;;;;;9.27;2.55;;;;;;;14.06;62.52;99415.09;10397654;28;20147;-62
2023/03/30 04:46:11;;;;;;;9.10;2.70;;;;;;;14.08;62.52;99430.97;10393483;28;20075;-61
2023/03/30 04:51:13;;;;;;;4.93;2.45;;;;;;;14.10;61.93;99421.78;10396615;28;20059;-61
2023/03/30 04:56:15;;;;;;;11.45;2.72;;;;;;;14.15;61.51;99438.16;10386228;28;20084;-61
2023/03/30 05:01:17;;;;;;;7.55;2.63;;;;;;;14.09;61.67;99425.47;10394323;28;20084;-61
2023/03/30 05:06:20;;;;;;;8.27;3.13;;;;;;;14.10;61.37;99419.13;10378803;28;20155;-61
2023/03/30 05:11:21;;;;;;;5.47;2.33;;;;;;;14.09;61.80;99433.50;10375513;28;20119;-61
2023/03/30 05:16:23;;;;;;;8.55;2.58;;;;;;;14.07;62.72;99456.91;10384839;28;20143;-61
2023/03/30 05:21:25;;;;;;;7.28;2.97;;;;;;;13.97;63.83;99456.22;10386189;28;20070;-61
2023/03/30 05:26:26;;;;;;;9.10;3.42;;;;;;;13.91;66.33;99451.53;10368514;28;20124;-62
2023/03/30 05:31:29;;;;;;;6.38;3.40;;;;;;;13.87;67.58;99410.91;10377202;28;20176;-61
2023/03/30 05:36:31;;;;;;;10.55;3.65;;;;;;;13.76;68.80;99422.75;10361068;28;20060;-61
2023/03/30 05:41:32;;;;;;;10.55;3.00;;;;;;;13.70;70.81;99431.44;10389066;28;20146;-60
2023/03/30 05:46:34;;;;;;;10.02;4.57;;;;;;;13.63;71.77;99441.13;10387167;28;20053;-60
2023/03/30 05:51:36;;;;;;;12.02;3.50;;;;;;;13.58;73.18;99443.44;10387397;28;20046;-60
2023/03/30 05:56:38;;;;;;;5.88;3.28;;;;;;;13.56;74.91;99456.97;10386278;28;21022;-63
2023/03/30 06:01:40;;;;;;;9.98;3.50;;;;;;;13.53;76.27;99472.50;10353795;28;20054;-61
2023/03/30 06:06:42;;;;;;;9.15;3.72;;;;;;;13.50;78.26;99468.31;10378944;28;20041;-61
2023/03/30 06:11:43;;;;;;;10.70;3.25;;;;;;;13.55;78.74;99462.47;10386692;28;20110;-61
2023/03/30 06:16:45;;;;;;;8.45;3.50;;;;;;;13.55;81.83;99451.78;10381297;28;20171;-60
2023/03/30 06:21:47;;;;;;;9.32;2.97;;;;;;;13.49;82.06;99481.84;10382299;28;20080;-61
2023/03/30 06:26:49;;;;;;;8.50;3.10;;;;;;;13.47;84.05;99490.03;10376469;28;20072;-63
2023/03/30 06:31:52;;;;;;;10.73;2.90;;;;;;;13.36;86.99;99499.19;10380678;28;20057;-62
2023/03/30 06:36:53;;;;;;;6.68;2.75;;;;;;;13.36;86.09;99483.13;10371650;28;20062;-62
2023/03/30 06:41:55;;;;;;;8.82;2.75;;;;;;;13.37;89.90;99475.94;10388984;28;20368;-62
2023/03/30 06:46:57;;;;;;;7.45;3.70;;;;;;;13.36;91.37;99492.97;10389912;28;20402;-62
2023/03/30 06:51:58;;;;;;;5.50;2.88;;;;;;;13.35;92.04;99476.09;10385678;28;20135;-62
2023/03/30 06:57:04;;;;;;;8.88;3.97;;;;;;;13.34;91.59;99487.78;10384868;28;20614;-61
2023/03/30 07:02:06;;;;;;;9.15;3.28;;;;;;;13.35;91.88;99464.59;10383136;28;20048;-62
2023/03/30 07:07:07;;;;;;;8.32;3.08;;;;;;;13.35;92.02;99476.09;10393262;28;20585;-60
2023/03/30 07:12:09;;;;;;;7.22;3.53;;;;;;;13.33;92.67;99461.19;10388003;28;20052;-63
2023/03/30 07:17:12;;;;;;;8.25;2.92;;;;;;;13.37;92.65;99492.81;10385780;28;20060;-61
2023/03/30 07:22:15;;;;;;;10.80;3.83;;;;;;;13.43;91.74;99473.44;10385534;28;20048;-61
2023/03/30 07:27:17;;;;;;;7.57;2.92;;;;;;;13.43;92.57;99500.19;10367753;28;20757;-62
2023/03/30 07:32:19;;;;;;;5.50;2.53;;;;;;;13.51;91.30;99487.84;10390901;28;20819;-62
2023/03/30 07:37:21;;;;;;;6.95;2.67;;;;;;;13.50;91.31;99475.50;10386132;28;20052;-60
2023/03/30 07:42:23;;;;;;;6.95;2.85;;;;;;;13.54;91.47;99475.03;10387310;28;20393;-62
2023/03/30 07:47:25;;;;;;;8.07;3.45;;;;;;;13.53;91.62;99493.91;10382592;28;20142;-61
2023/03/30 07:52:27;;;;;;;8.10;2.72;;;;;;;13.58;91.03;99500.41;10386506;28;20123;-62
2023/03/30 07:57:30;;;;;;;7.03;4.18;;;;;;;13.76;90.17;99500.31;10388114;28;20056;-60
2023/03/30 08:02:32;;;;;;;7.50;2.70;;;;;;;13.77;90.31;99485.13;10389300;28;20049;-61
2023/03/30 08:07:35;;;;;;;6.43;2.97;;;;;;;13.73;90.58;99481.09;10376604;28;20677;-61
2023/03/30 08:12:37;;;;;;;6.05;2.58;;;;;;;13.64;89.80;99474.88;10388968;28;20053;-62
2023/03/30 08:17:40;;;;;;;6.65;2.72;;;;;;;13.65;90.36;99513.16;10381199;28;20139;-63
2023/03/30 08:22:41;;;;;;;4.50;2.22;;;;;;;13.56;90.16;99528.34;10387387;28;20505;-61
2023/03/30 08:27:46;;;;;;;7.72;2.83;;;;;;;13.61;90.43;99526.84;10388553;28;20057;-63
2023/03/30 08:32:48;;;;;;;4.85;3.05;;;;;;;13.69;89.48;99530.53;10384295;28;20918;-63
2023/03/30 08:37:49;;;;;;;6.25;2.40;;;;;;;13.81;88.50;99515.03;10393857;28;20053;-62
2023/03/30 08:43:20;;;;;;;7.00;3.00;;;;;;;14.31;86.69;99511.47;10395358;28;20564;-61
2023/03/30 08:48:27;;;;;;;6.15;2.70;;;;;;;14.56;83.50;99506.13;10376160;28;20128;-63
2023/03/30 08:53:33;;;;;;;3.67;2.50;;;;;;;14.73;82.79;99478.38;10356808;27;20529;-62
2023/03/30 08:59:06;;;;;;;6.75;2.85;;;;;;;15.08;80.75;99495.03;10346582;28;20454;-62
2023/03/30 09:04:33;;;;;;;3.92;2.88;;;;;;;14.82;81.33;99517.53;10366645;28;20060;-63
2023/03/30 09:09:41;;;;;;;4.70;2.95;;;;;;;14.71;82.29;99504.47;10383771;28;20182;-61
2023/03/30 09:14:48;;;;;;;7.72;3.03;;;;;;;15.12;79.97;99520.50;10385356;28;20109;-63
2023/03/30 09:19:57;;;;;;;4.15;2.53;;;;;;;15.25;79.19;99495.00;10386720;28;20053;-63
2023/03/30 09:25:00;;;;;;;5.07;3.00;;;;;;;15.10;78.99;99503.75;10370529;28;20064;-62
2023/03/30 09:30:19;;;;;;;7.45;3.92;;;;;;;14.95;79.03;99484.00;10398503;28;20205;-62
2023/03/30 09:35:27;;;;;;;6.45;3.10;;;;;;;14.78;79.70;99492.06;10391955;28;20151;-62
2023/03/30 09:40:50;;;;;;;6.50;2.85;;;;;;;14.75;79.96;99511.16;10387338;28;20053;-62
2023/03/30 09:45:55;;;;;;;5.85;2.40;;;;;;;14.84;79.40;99493.25;10383814;28;20057;-63
2023/03/30 09:50:57;;;;;;;3.25;2.65;;;;;;;14.84;78.49;99499.44;10379089;28;20109;-61
2023/03/30 09:56:09;;;;;;;6.97;2.97;;;;;;;14.79;79.20;99500.97;10378199;28;20049;-61
2023/03/30 10:01:13;;;;;;;5.00;2.15;;;;;;;14.85;79.10;99485.03;10392570;28;20123;-62
2023/03/30 10:06:16;;;;;;;;;;;;;;;14.84;79.05;99494.06;10392793;28;20056;-64
2023/03/30 10:11:30;;;;;;;7.65;3.10;;;;;;;14.92;79.29;99489.72;10372777;27;19929;-62
2023/03/30 10:16:32;;;;;;;5.57;3.03;;;;;;;15.06;78.64;99477.44;10382955;28;20053;-61
2023/03/30 10:21:40;;;;;;;5.95;2.90;;;;;;;15.23;77.86;99475.56;10387806;28;20068;-60
2023/03/30 10:26:45;;;;;;;4.35;2.95;;;;;;;15.48;76.76;99474.47;10385423;28;20076;-61
2023/03/30 10:31:51;;;;;;;4.22;2.60;;;;;;;16.79;70.65;99478.09;10391068;28;20642;-61
2023/03/30 10:36:53;;;;;;;4.47;1.83;;;;;;;16.32;71.78;99475.66;10392973;28;20063;-61
2023/03/30 10:41:58;;;;;;;5.97;2.63;;;;;;;16.24;71.73;99482.78;10393017;28;20728;-60
2023/03/30 10:47:14;;;;;;;8.13;2.42;;;;;;;16.51;70.38;99482.41;10390231;28;20603;-61
2023/03/30 10:52:31;;;;;;;4.45;2.60;;;;;;;16.99;67.99;99472.22;10391358;28;20049;-61
2023/03/30 10:57:53;;;;;;;4.55;2.85;;;;;;;17.27;65.51;99482.34;10384652;28;20143;-62
2023/03/30 11:03:11;;;;;;;4.65;1.67;;;;;;;21.05;51.83;99466.22;10387793;28;20222;-63
2023/03/30 11:08:30;;;;;;;2.88;1.75;;;;;;;21.72;48.15;99452.47;10389033;28;20061;-60
2023/03/30 11:13:39;;;;;;;4.93;2.00;;;;;;;22.14;46.42;99455.56;10390672;28;20057;-61
2023/03/30 11:18:52;;;;;;;4.85;2.25;;;;;;;18.98;53.67;99471.09;10391088;28;20074;-61
2023/03/30 11:23:58;;;;;;;5.37;1.53;;;;;;;22.44;45.71;99463.09;10384326;28;20064;-62
2023/03/30 11:29:31;;;;;;;4.85;1.50;;;;;;;24.30;40.00;99464.75;10390233;28;21106;-63
2023/03/30 11:35:06;;;;;;;5.03;1.65;;;;;;;26.97;35.41;99439.34;10391684;28;20095;-64
2023/03/30 11:40:31;;;;;;;4.03;1.35;;;;;;;25.18;37.20;99436.91;10389365;28;20041;-65
2023/03/30 11:45:47;;;;;;;2.28;1.38;;;;;;;21.63;43.77;99435.66;10386520;28;20052;-63
2023/03/30 11:51:08;;;;;;;3.00;1.83;;;;;;;19.17;49.83;99437.16;10396887;28;20060;-64
2023/03/30 11:56:25;;;;;;;4.30;1.45;;;;;;;18.23;52.24;99446.44;10387728;28;20179;-63
2023/03/30 12:01:32;;;;;;;4.63;1.40;;;;;;;24.74;38.55;99447.34;10387289;28;20045;-63
2023/03/30 12:06:37;;;;;;;4.63;1.33;;;;;;;24.55;36.67;99444.72;10402912;28;20060;-63
2023/03/30 12:11:50;;;;;;;2.67;1.10;;;;;;;20.94;44.40;99446.06;10397005;28;20149;-62
2023/03/30 12:16:54;;;;;;;;;;;;;;;19.35;48.64;99452.81;10400120;28;20049;-62
2023/03/30 12:22:04;;;;;;;1.98;0.82;;;;;;;18.39;52.49;99465.00;10389117;28;20055;-62
2023/03/30 12:27:08;;;;;;;4.47;1.10;;;;;;;18.14;55.90;99457.31;10388281;28;20542;-63
2023/03/30 12:32:27;;;;;;;3.85;1.30;;;;;;;17.64;61.21;99446.41;10397127;28;20118;-64
2023/03/30 12:37:36;;;;;;;5.70;1.23;;;;;;;25.01;44.35;99418.59;10395893;28;20056;-65
2023/03/30 12:42:53;;;;;;;3.83;1.17;;;;;;;29.58;35.07;99406.34;10396152;28;20153;-66
2023/03/30 12:48:14;;;;;;;4.22;1.58;;;;;;;32.91;27.24;99399.09;10379915;28;20577;-59
2023/03/30 12:53:47;;;;;;;3.60;0.80;;;;;;;25.51;32.78;99403.56;10391047;28;20803;-58
2023/03/30 12:58:57;;;;;;;3.03;0.93;;;;;;;22.38;36.33;99410.59;10390360;28;20049;-67
2023/03/30 13:04:22;;;;;;;2.80;0.70;;;;;;;20.18;41.62;99439.19;10369570;28;20060;-67
2023/03/30 13:09:24;;;;;;;7.57;1.40;;;;;;;18.23;57.08;99532.63;10389485;28;20052;-66
2023/03/30 13:14:29;;;;;;;2.53;0.55;;;;;;;17.57;54.62;99515.44;10368415;28;20092;-66
2023/03/30 13:19:36;;;;;;;1.92;0.57;;;;;;;20.58;50.66;99468.09;10389804;28;20390;-72
2023/03/30 13:24:42;;;;;;;2.42;0.70;;;;;;;20.88;50.41;99470.41;10393692;28;20535;-69
2023/03/30 13:29:57;;;;;;;1.63;0.50;;;;;;;21.00;53.65;99468.72;10379620;28;20051;-68
2023/03/30 13:35:12;;;;;;;2.95;0.75;;;;;;;19.79;56.24;99481.28;10384583;28;20156;-68
2023/03/30 13:40:21;;;;;;;3.63;0.60;;;;;;;18.95;59.65;99504.66;10383883;28;20520;-68
2023/03/30 13:46:03;;;;;;;1.60;0.50;;;;;;;18.47;62.07;99496.38;10371970;28;20071;-67
2023/03/30 13:51:23;;;;;;;2.75;1.05;;;;;;;18.18;63.76;99520.56;10383839;28;20715;-66
2023/03/30 13:56:26;;;;;;;3.53;0.90;;;;;;;17.89;61.01;99532.22;10363954;28;20113;-67
2023/03/30 14:01:28;;;;;;;2.15;0.50;;;;;;;17.80;62.99;99538.72;10404487;28;20732;-66
2023/03/30 14:06:33;;;;;;;3.13;0.68;;;;;;;18.52;59.33;99505.53;10364180;28;20075;-65
2023/03/30 14:11:45;;;;;;;2.33;0.52;;;;;;;18.79;56.95;99515.72;10375215;28;20130;-63
2023/03/30 14:16:48;;;;;;;1.88;0.35;;;;;;;18.45;56.92;99511.88;10384218;28;20165;-64
2023/03/30 14:21:55;;;;;;;1.05;0.32;;;;;;;17.83;59.32;99517.66;10386640;28;20755;-63
2023/03/30 14:27:06;;;;;;;2.47;0.73;;;;;;;17.53;60.55;99519.53;10383229;28;20818;-64
2023/03/30 14:32:12;;;;;;;2.10;0.57;;;;;;;17.29;61.88;99545.72;10375429;28;20053;-63
2023/03/30 14:37:16;;;;;;;2.97;0.88;;;;;;;17.13;63.30;99553.94;10386900;28;20056;-66
2023/03/30 14:42:30;;;;;;;3.03;0.77;;;;;;;16.71;66.41;99574.06;10386917;28;20505;-69
2023/03/30 14:47:32;;;;;;;2.72;0.57;;;;;;;16.54;64.83;99576.91;10385138;28;20646;-67
2023/03/30 14:52:42;;;;;;;1.52;0.30;;;;;;;16.51;64.74;99560.31;10379355;28;20075;-64
2023/03/30 14:57:45;;;;;;;1.90;0.50;;;;;;;16.40;65.36;99542.75;10383156;28;20052;-67
2023/03/30 15:02:52;;;;;;;1.00;0.30;;;;;;;16.15;65.59;99569.75;10381079;28;20140;-64
2023/03/30 15:07:53;;;;;;;2.08;0.82;;;;;;;15.96;66.37;99573.72;10375514;28;20142;-67
2023/03/30 15:12:56;;;;;;;1.92;0.40;;;;;;;15.82;68.15;99556.53;10379211;28;20048;-68
2023/03/30 15:18:00;;;;;;;1.83;0.57;;;;;;;15.88;69.43;99538.84;10383390;28;20048;-67
2023/03/30 15:23:02;;;;;;;;;;;;;;;16.14;66.02;99537.69;10380740;28;21159;-66
2023/03/30 15:28:12;;;;;;;1.70;0.60;;;;;;;16.20;65.24;99542.41;10378890;28;19929;-63
2023/03/30 15:33:45;;;;;;;2.22;1.05;;;;;;;16.10;65.85;99531.88;10363666;28;20056;-64
2023/03/30 15:38:57;;;;;;;1.30;0.50;;;;;;;16.23;65.40;99548.22;10376224;28;20057;-64
2023/03/30 15:44:09;;;;;;;1.17;0.35;;;;;;;16.22;64.55;99543.88;10336668;28;20048;-64
2023/03/30 15:49:15;;;;;;;2.03;0.53;;;;;;;16.00;63.28;99541.97;10333464;28;20053;-65
2023/03/30 15:54:21;;;;;;;2.13;0.98;;;;;;;15.85;65.76;99544.56;10363748;28;20303;-69
2023/03/30 15:59:29;;;;;;;1.00;0.40;;;;;;;15.77;64.18;99537.38;10372832;28;20049;-65
2023/03/30 16:04:31;;;;;;;3.10;1.05;;;;;;;15.67;64.29;99537.59;10370031;28;20057;-64
2023/03/30 16:09:33;;;;;;;2.15;1.13;;;;;;;15.74;63.94;99516.25;10362780;28;20072;-64
2023/03/30 16:14:36;;;;;;;4.63;0.70;;;;;;;15.57;64.58;99528.91;10382881;28;20163;-65
2023/03/30 16:19:40;;;;;;;2.58;0.90;;;;;;;15.55;64.87;99502.28;10373009;28;20052;-64
2023/03/30 16:24:42;;;;;;;4.28;0.73;;;;;;;15.47;63.20;99504.97;10350714;28;20544;-64
2023/03/30 16:29:44;;;;;;;4.13;1.42;;;;;;;15.26;62.02;99500.19;10369854;28;20104;-64
2023/03/30 16:34:48;;;;;;;2.47;0.80;;;;;;;15.14;62.03;99518.47;10364396;28;20062;-67
2023/03/30 16:39:49;;;;;;;2.53;0.70;;;;;;;15.22;62.18;99527.50;10375065;28;20128;-66
2023/03/30 16:44:51;;;;;;;2.15;0.50;;;;;;;15.20;61.65;99515.09;10357423;28;20169;-65
2023/03/30 16:49:55;;;;;;;1.55;0.98;;;;;;;15.31;62.13;99526.47;10365860;28;20056;-66
2023/03/30 16:54:57;;;;;;;3.45;0.60;;;;;;;15.19;61.61;99524.19;10368949;28;20056;-64
2023/03/30 16:59:59;;;;;;;1.77;0.70;;;;;;;15.14;61.42;99514.97;10380435;28;20610;-64
2023/03/30 17:05:02;;;;;;;1.73;0.55;;;;;;;15.08;61.35;99527.19;10354920;28;20793;-67
2023/03/30 17:10:15;;;;;;;1.60;0.80;;;;;;;14.94;60.96;99519.88;10338448;28;20087;-64
2023/03/30 17:15:17;;;;;;;3.00;0.60;;;;;;;14.87;60.76;99526.91;10312554;28;20049;-65
2023/03/30 17:20:31;;;;;;;3.15;0.52;;;;;;;14.71;61.36;99533.09;10315335;28;20064;-65
2023/03/30 17:25:38;;;;;;;0.80;0.30;;;;;;;14.62;61.53;99532.25;10379771;28;20689;-64
2023/03/30 17:30:40;;;;;;;2.65;0.73;;;;;;;14.55;62.20;99547.31;10381077;28;20718;-64
2023/03/30 17:35:48;;;;;;;1.92;0.50;;;;;;;14.37;62.82;99556.31;10377197;28;20251;-64
2023/03/30 17:40:50;;;;;;;2.92;0.60;;;;;;;14.31;63.25;99557.00;10376894;28;20056;-64
2023/03/30 17:45:52;;;;;;;1.90;1.50;;;;;;;14.26;63.84;99560.16;10373599;28;20533;-65
2023/03/30 17:50:54;;;;;;;3.08;1.17;;;;;;;14.29;64.18;99567.00;10371929;28;20064;-64
2023/03/30 17:55:55;;;;;;;2.70;0.70;;;;;;;14.33;64.38;99569.19;10334179;28;20142;-66
2023/03/30 18:01:06;;;;;;;3.92;1.63;;;;;;;14.37;64.32;99568.88;10364540;28;20056;-65
2023/03/30 18:06:10;;;;;;;7.85;3.72;;;;;;;14.41;64.11;99562.19;10356306;28;20489;-66
2023/03/30 18:11:12;;;;;;;2.72;0.88;;;;;;;14.37;63.90;99568.88;10381828;28;21436;-65
2023/03/30 18:16:16;;;;;;;5.28;2.30;;;;;;;14.34;65.28;99572.72;10358348;28;20052;-65
2023/03/30 18:21:18;;;;;;;4.78;2.40;;;;;;;14.40;65.05;99577.41;10375774;28;20248;-65
2023/03/30 18:26:20;;;;;;;4.32;1.25;;;;;;;14.43;65.01;99587.78;10381131;28;20051;-64
2023/03/30 18:31:21;;;;;;;4.13;1.25;;;;;;;14.45;64.93;99584.94;10351573;28;20451;-64
2023/03/30 18:36:23;;;;;;;3.70;1.67;;;;;;;14.48;64.85;99590.81;10357250;28;20053;-63
2023/03/30 18:41:26;;;;;;;5.20;2.30;;;;;;;14.48;65.27;99587.28;10371446;28;21011;-64
2023/03/30 18:46:27;;;;;;;5.97;3.42;;;;;;;14.41;65.79;99589.81;10332362;28;20053;-64
2023/03/30 18:51:29;;;;;;;5.93;2.50;;;;;;;14.50;66.35;99601.34;10337793;28;20064;-62
2023/03/30 18:56:32;;;;;;;5.25;2.33;;;;;;;14.37;65.85;99601.00;10311071;28;20060;-65
2023/03/30 19:01:33;;;;;;;3.95;1.98;;;;;;;14.30;66.08;99607.00;10317258;28;20080;-64
2023/03/30 19:06:35;;;;;;;5.10;1.77;;;;;;;14.31;65.20;99600.66;10326071;28;20148;-64
2023/03/30 19:11:38;;;;;;;3.53;1.85;;;;;;;14.25;65.12;99603.16;10344447;28;20537;-63
2023/03/30 19:16:40;;;;;;;4.80;1.85;;;;;;;14.11;65.15;99597.44;10378498;28;20061;-65
2023/03/30 19:21:42;;;;;;;3.83;1.60;;;;;;;14.08;64.80;99600.44;10388896;28;20227;-65
2023/03/30 19:26:44;;;;;;;4.40;1.75;;;;;;;14.02;64.61;99593.06;10380611;28;20123;-66
2023/03/30 19:31:46;;;;;;;4.45;1.40;;;;;;;13.88;64.27;99594.47;10382765;28;20139;-66
2023/03/30 19:36:50;;;;;;;3.95;1.42;;;;;;;13.84;64.37;99597.63;10377757;28;20063;-64
2023/03/30 19:41:52;;;;;;;3.63;1.40;;;;;;;13.79;64.05;99582.06;10346520;28;21893;-64
2023/03/30 19:46:53;;;;;;;8.85;1.85;;;;;;;13.74;64.73;99589.75;10315349;28;20053;-64
2023/03/30 19:51:58;;;;;;;4.35;1.17;;;;;;;13.60;64.83;99575.13;10376002;28;20572;-64
2023/03/30 19:57:02;;;;;;;4.53;1.77;;;;;;;13.63;65.27;99592.69;10382364;28;20505;-64
2023/03/30 20:02:04;;;;;;;4.13;1.33;;;;;;;13.61;65.27;99585.66;10375182;28;21859;-65
2023/03/30 20:07:06;;;;;;;4.90;1.77;;;;;;;13.59;65.17;99594.88;10378322;28;20884;-65
2023/03/30 20:12:12;;;;;;;3.38;1.27;;;;;;;13.52;65.30;99593.81;10389508;28;20578;-66
2023/03/30 20:17:14;;;;;;;5.88;1.20;;;;;;;13.44;66.00;99590.09;10379934;28;20049;-63
2023/03/30 20:22:16;;;;;;;3.42;1.52;;;;;;;13.41;66.52;99594.94;10382038;28;20056;-66
2023/03/30 20:27:17;;;;;;;3.58;1.50;;;;;;;13.37;66.90;99607.75;10381654;28;20059;-65
2023/03/30 20:32:20;;;;;;;5.57;1.65;;;;;;;13.35;67.21;99609.75;10350204;28;20746;-64
2023/03/30 20:37:22;;;;;;;3.20;1.40;;;;;;;13.37;67.30;99594.38;10372987;28;20799;-65
2023/03/30 20:42:27;;;;;;;4.18;1.35;;;;;;;13.38;67.39;99595.25;10369561;28;20164;-65
2023/03/30 20:47:29;;;;;;;4.35;1.40;;;;;;;13.41;67.18;99594.94;10370053;28;20165;-65
2023/03/30 20:52:32;;;;;;;3.67;1.10;;;;;;;13.36;67.35;99590.06;10344852;28;20065;-65
2023/03/30 20:57:36;;;;;;;;;;;;;;;13.24;67.81;99585.91;10389595;28;20345;-64
2023/03/30 21:02:40;;;;;;;5.07;1.13;;;;;;;13.23;67.81;99573.56;10332638;28;20067;-63
2023/03/30 21:07:45;;;;;;;;;;;;;;;13.24;67.80;99572.56;10360401;28;20142;-63
2023/03/30 21:12:47;;;;;;;6.68;1.27;;;;;;;13.22;67.45;99572.72;10352633;28;20008;-63
2023/03/30 21:17:48;;;;;;;4.05;1.30;;;;;;;13.19;69.09;99570.34;10344946;28;20138;-53
2023/03/30 21:22:50;;;;;;;6.55;1.45;;;;;;;13.06;68.31;99567.25;10382294;28;20135;-63
2023/03/30 21:27:51;;;;;;;5.05;1.10;;;;;;;13.07;68.57;99564.44;10370053;28;20146;-63
2023/03/30 21:32:54;;;;;;;4.43;1.23;;;;;;;13.04;68.75;99545.22;10389742;28;20433;-63
2023/03/30 21:37:55;;;;;;;2.92;0.85;;;;;;;13.07;68.55;99553.75;10407877;28;20049;-63
2023/03/30 21:42:59;;;;;;;4.00;1.17;;;;;;;13.06;68.87;99551.22;10422018;28;20045;-62
2023/03/30 21:48:00;;;;;;;6.60;1.30;;;;;;;12.96;70.05;99558.53;10396090;28;20784;-63
2023/03/30 21:53:02;;;;;;;4.13;1.27;;;;;;;12.94;70.12;99561.34;10401230;28;20079;-63
2023/03/30 21:58:04;;;;;;;3.70;1.00;;;;;;;12.95;70.36;99548.84;10393841;28;20045;-63
2023/03/30 22:03:05;;;;;;;2.58;1.00;;;;;;;12.90;70.76;99541.28;10396102;28;20063;-63
2023/03/30 22:08:09;;;;;;;5.63;1.25;;;;;;;12.86;71.21;99531.91;10375737;28;20194;-63
2023/03/30 22:13:11;;;;;;;3.83;1.30;;;;;;;12.88;71.33;99532.56;10378904;28;20776;-63
2023/03/30 22:18:15;;;;;;;3.22;0.95;;;;;;;12.91;71.37;99525.09;10402016;28;20060;-62
2023/03/30 22:23:17;;;;;;;4.53;1.60;;;;;;;12.90;71.61;99512.72;10390025;28;20739;-63
2023/03/30 22:28:19;;;;;;;3.83;0.85;;;;;;;12.90;71.52;99506.56;10400004;28;20053;-63
2023/03/30 22:33:21;;;;;;;6.25;1.40;;;;;;;12.86;71.92;99494.50;10393594;28;20049;-62
2023/03/30 22:38:23;;;;;;;6.00;0.90;;;;;;;12.91;72.26;99500.25;10391633;28;20060;-62
2023/03/30 22:43:26;;;;;;;5.13;1.45;;;;;;;12.89;72.55;99502.22;10393996;28;20045;-62
2023/03/30 22:48:31;;;;;;;3.83;1.08;;;;;;;12.90;72.83;99487.88;10382532;28;20720;-62
2023/03/30 22:53:33;;;;;;;7.13;1.60;;;;;;;12.89;73.31;99489.69;10405018;28;20051;-63
2023/03/30 22:58:35;;;;;;;3.72;1.65;;;;;;;12.92;73.24;99485.88;10389181;28;20618;-62
2023/03/30 23:03:37;;;;;;;2.92;1.00;;;;;;;12.91;73.36;99473.53;10392213;28;20269;-63
2023/03/30 23:08:42;;;;;;;;;;;;;;;12.89;73.24;99468.31;10341233;28;20049;-63
2023/03/30 23:13:44;;;;;;;4.70;1.80;;;;;;;12.87;73.17;99450.78;10375623;28;20396;-63
2023/03/30 23:18:45;;;;;;;6.40;1.08;;;;;;;12.91;73.40;99447.66;10374626;28;20138;-63
2023/03/30 23:23:48;;;;;;;4.60;1.20;;;;;;;12.91;73.05;99433.47;10382332;28;20045;-63
2023/03/30 23:28:50;;;;;;;3.13;1.10;;;;;;;12.93;73.27;99418.09;10385197;28;20642;-63
2023/03/30 23:33:53;;;;;;;4.50;1.20;;;;;;;12.95;72.56;99413.44;10397777;28;20595;-63
2023/03/30 23:38:55;;;;;;;4.53;1.10;;;;;;;12.97;72.65;99403.44;10350462;28;20069;-62
2023/03/30 23:43:57;;;;;;;2.65;1.05;;;;;;;13.00;72.97;99397.78;10390785;28;20045;-62
2023/03/30 23:49:00;;;;;;;5.00;1.38;;;;;;;13.02;72.89;99398.44;10390992;28;20044;-63